createdAt,value
2019-01-08T19:33:26.762Z,23
2019-01-08T19:38:50.762Z,20.9
2019-01-08T19:44:23.223Z,14.5
2019-01-08T19:49:46.561Z,19
2019-01-08T19:55:09.824Z,17.6
2019-01-08T20:00:43.740Z,20.6
2019-01-08T20:06:06.519Z,19.9
2019-01-08T20:11:33.113Z,22
2019-01-08T20:17:09.275Z,16.700001
2019-01-08T20:22:33.648Z,23.1
2019-01-08T20:27:56.408Z,19.200001
2019-01-08T20:33:31.166Z,18.700001
2019-01-08T20:39:05.743Z,24
2019-01-08T20:44:40.072Z,25.4
2019-01-08T20:50:11.864Z,23.1
2019-01-08T20:55:44.969Z,19.6
2019-01-08T21:01:17.801Z,27.4
2019-01-08T21:06:53.132Z,24.1
2019-01-08T21:12:18.426Z,23.299999
2019-01-08T21:17:51.010Z,29.6
2019-01-08T21:23:13.722Z,23.1
2019-01-08T21:28:36.839Z,20.5
2019-01-08T21:34:10.079Z,22.299999
2019-01-08T21:39:33.488Z,27.6
2019-01-08T21:44:56.988Z,26.4
2019-01-08T21:50:22.483Z,28.1
2019-01-08T21:55:54.061Z,20.9
2019-01-08T22:01:17.768Z,28.299999
2019-01-08T22:06:51.061Z,21
2019-01-08T22:12:23.169Z,23.9
2019-01-08T22:17:46.431Z,24.1
2019-01-08T22:23:11.546Z,22.4
2019-01-08T22:28:45.250Z,18.4
2019-01-08T22:34:11.301Z,16.299999
2019-01-08T22:39:34.732Z,14.4
2019-01-08T22:45:08.530Z,13.5
2019-01-08T22:50:31.127Z,19.1
2019-01-08T22:56:03.541Z,16.799999
2019-01-08T23:01:26.641Z,10.5
2019-01-08T23:07:00.479Z,12.2
2019-01-08T23:12:24.875Z,12.6
2019-01-08T23:17:58.747Z,9.4
2019-01-08T23:23:24.757Z,12.3
2019-01-08T23:28:59.660Z,9.4
2019-01-08T23:34:22.501Z,9.7
2019-01-08T23:39:56.340Z,12.6
2019-01-08T23:45:21.235Z,9.2
2019-01-08T23:50:54.833Z,14.6
2019-01-08T23:56:19.370Z,17.9
